Time;durP1;ratioP1;P1;durP2;ratioP2;P2;SDS_P1;SDS_P2;PMS_P1;PMS_P2;Temp;Humidity;BMP_temperature;BMP_pressure;BME280_temperature;BME280_humidity;BME280_pressure;Samples;Min_cycle;Max_cycle;Signal;HPM_P1;HPM_P2
2024/01/22 00:00:10;;;;;;;13.00;8.48;;;-0.40;78.40;;;;;;5047242;28;20593;-58
2024/01/22 00:02:36;;;;;;;15.40;8.93;;;-0.40;78.50;;;;;;5044836;28;20041;-61
2024/01/22 00:05:02;;;;;;;13.73;8.13;;;-0.40;78.70;;;;;;5044354;28;20408;-60
2024/01/22 00:07:28;;;;;;;12.75;8.35;;;-0.40;78.90;;;;;;5044489;28;20029;-59
2024/01/22 00:09:53;;;;;;;17.77;11.13;;;-0.40;79.10;;;;;;5044061;28;20044;-61
2024/01/22 00:12:19;;;;;;;18.15;10.68;;;-0.40;79.00;;;;;;5041741;28;20033;-61
2024/01/22 00:14:47;;;;;;;20.65;10.52;;;-0.40;78.70;;;;;;5041196;28;20090;-60
2024/01/22 00:17:12;;;;;;;18.30;10.63;;;-0.40;78.50;;;;;;5040157;28;20025;-60
2024/01/22 00:19:38;;;;;;;19.42;11.40;;;-0.40;78.30;;;;;;5045892;28;20082;-59
2024/01/22 00:22:03;;;;;;;19.60;10.73;;;-0.40;78.10;;;;;;5038947;28;20025;-59
2024/01/22 00:24:29;;;;;;;17.88;10.27;;;-0.40;78.00;;;;;;5040755;28;20029;-61
2024/01/22 00:26:55;;;;;;;18.33;10.25;;;-0.50;78.00;;;;;;5044810;28;20132;-61
2024/01/22 00:29:20;;;;;;;16.73;10.55;;;-0.50;78.00;;;;;;5044252;28;20048;-60
2024/01/22 00:31:46;;;;;;;17.85;9.52;;;-0.50;78.00;;;;;;5037973;28;20096;-58
2024/01/22 00:34:11;;;;;;;15.05;8.65;;;-0.50;78.10;;;;;;5040349;28;20044;-59
2024/01/22 00:36:37;;;;;;;12.07;7.97;;;-0.60;78.50;;;;;;5040362;28;20593;-58
2024/01/22 00:39:02;;;;;;;17.13;9.77;;;-0.60;78.80;;;;;;5044617;28;20032;-57
2024/01/22 00:41:28;;;;;;;18.98;10.70;;;-0.60;78.90;;;;;;5044860;28;20124;-59
2024/01/22 00:43:54;;;;;;;20.50;10.95;;;-0.60;78.80;;;;;;5049132;28;20025;-58
2024/01/22 00:46:19;;;;;;;17.90;10.68;;;-0.60;78.80;;;;;;5045852;28;20033;-61
2024/01/22 00:48:45;;;;;;;15.68;9.30;;;-0.60;78.70;;;;;;5042724;28;20036;-60
2024/01/22 00:51:10;;;;;;;15.13;8.32;;;-0.60;78.70;;;;;;5042384;28;20086;-58
2024/01/22 00:53:36;;;;;;;13.55;8.55;;;-0.70;79.00;;;;;;5042362;28;20040;-61
2024/01/22 00:56:02;;;;;;;14.52;8.38;;;-0.60;79.50;;;;;;5049476;28;20543;-56
2024/01/22 00:58:27;;;;;;;16.27;9.07;;;-0.60;80.00;;;;;;5044214;28;20044;-60
2024/01/22 01:00:54;;;;;;;13.52;8.35;;;-0.50;80.40;;;;;;5039576;28;20136;-59
2024/01/22 01:03:19;;;;;;;16.20;9.02;;;-0.50;80.70;;;;;;5046791;28;20025;-60
2024/01/22 01:05:45;;;;;;;12.00;8.18;;;-0.40;80.80;;;;;;5038804;28;20217;-61
2024/01/22 01:08:11;;;;;;;13.73;8.80;;;-0.30;80.90;;;;;;5048716;28;20116;-59
2024/01/22 01:10:37;;;;;;;13.52;8.30;;;-0.20;80.90;;;;;;5039954;28;20037;-61
2024/01/22 01:13:02;;;;;;;12.65;8.43;;;-0.20;80.90;;;;;;5040417;28;20083;-60
2024/01/22 01:15:28;;;;;;;11.02;7.63;;;-0.10;80.90;;;;;;5044689;28;20036;-59
2024/01/22 01:17:53;;;;;;;11.43;8.02;;;0.00;80.90;;;;;;5044920;28;20055;-59
2024/01/22 01:20:19;;;;;;;15.40;8.38;;;0.00;80.80;;;;;;5049609;28;20029;-59
2024/01/22 01:22:45;;;;;;;13.10;8.05;;;0.10;80.60;;;;;;5046253;28;20447;-58
2024/01/22 01:25:10;;;;;;;12.27;8.07;;;0.10;80.40;;;;;;5046997;28;20037;-60
2024/01/22 01:27:36;;;;;;;11.73;8.00;;;0.20;80.20;;;;;;5045262;28;20047;-61
2024/01/22 01:30:01;;;;;;;12.60;8.38;;;0.20;80.00;;;;;;5044403;28;20496;-60
2024/01/22 01:32:27;;;;;;;13.23;8.38;;;0.20;79.90;;;;;;5044676;28;20052;-57
2024/01/22 01:34:52;;;;;;;16.35;8.75;;;0.30;80.00;;;;;;5045967;28;20106;-61
2024/01/22 01:37:18;;;;;;;13.68;8.65;;;0.30;80.10;;;;;;5045751;28;20033;-60
2024/01/22 01:39:44;;;;;;;13.88;9.00;;;0.40;80.20;;;;;;5049971;28;20116;-60
2024/01/22 01:42:09;;;;;;;14.60;9.32;;;0.40;80.30;;;;;;5045114;28;20029;-61
2024/01/22 01:44:38;;;;;;;13.88;9.30;;;0.40;80.40;;;;;;5046892;28;20033;-59
2024/01/22 01:47:04;;;;;;;14.68;9.70;;;0.50;80.50;;;;;;5045542;28;20479;-59
2024/01/22 01:49:30;;;;;;;16.00;9.88;;;0.50;80.60;;;;;;5042058;28;20033;-57
2024/01/22 01:51:56;;;;;;;13.00;9.00;;;0.50;80.50;;;;;;5043936;28;20022;-59
2024/01/22 01:54:27;;;;;;;13.48;9.63;;;0.60;80.50;;;;;;5041854;28;20056;-61
2024/01/22 01:56:53;;;;;;;15.23;9.73;;;0.60;80.40;;;;;;5045039;28;20051;-60
2024/01/22 01:59:19;;;;;;;14.07;9.25;;;0.60;80.50;;;;;;5042281;28;20036;-59
2024/01/22 02:01:45;;;;;;;14.57;10.07;;;0.70;80.50;;;;;;5039436;28;20090;-59
2024/01/22 02:04:10;;;;;;;16.00;10.13;;;0.70;80.50;;;;;;5048709;28;20037;-61
2024/01/22 02:06:36;;;;;;;13.98;9.68;;;0.70;80.50;;;;;;5040603;28;20037;-59
2024/01/22 02:09:02;;;;;;;16.35;9.98;;;0.70;80.40;;;;;;5043532;28;20025;-59
2024/01/22 02:11:28;;;;;;;15.27;10.18;;;0.80;80.40;;;;;;5046062;28;20569;-60
2024/01/22 02:13:54;;;;;;;16.45;10.00;;;0.80;80.40;;;;;;5047115;28;20032;-59
2024/01/22 02:16:19;;;;;;;14.20;10.15;;;0.80;80.30;;;;;;5046572;28;20412;-60
2024/01/22 02:18:45;;;;;;;15.80;10.10;;;0.80;80.20;;;;;;5039476;28;20044;-59
2024/01/22 02:21:11;;;;;;;14.93;10.23;;;0.80;80.20;;;;;;5043560;28;20401;-59
2024/01/22 02:23:36;;;;;;;15.73;10.52;;;0.80;80.10;;;;;;5042680;28;20103;-60
2024/01/22 02:26:02;;;;;;;17.95;11.20;;;0.90;80.10;;;;;;5046905;28;20070;-59
2024/01/22 02:28:28;;;;;;;17.77;10.90;;;0.90;81.00;;;;;;5046002;28;20049;-58
2024/01/22 02:30:54;;;;;;;17.08;10.82;;;0.80;80.00;;;;;;5046173;28;20522;-59
2024/01/22 02:33:19;;;;;;;18.40;11.63;;;0.80;80.10;;;;;;5045030;28;20041;-60
2024/01/22 02:35:45;;;;;;;17.08;11.50;;;0.80;80.20;;;;;;5043144;28;20174;-59
2024/01/22 02:38:11;;;;;;;17.63;11.57;;;0.80;80.20;;;;;;5044680;28;20025;-60
2024/01/22 02:40:36;;;;;;;17.00;11.38;;;0.90;80.40;;;;;;5047925;28;20048;-60
2024/01/22 02:43:02;;;;;;;17.85;12.10;;;0.90;80.40;;;;;;5049202;28;20031;-61
2024/01/22 02:45:27;;;;;;;21.63;12.50;;;0.90;80.40;;;;;;5045870;28;20052;-58
2024/01/22 02:47:53;;;;;;;20.85;12.40;;;0.90;80.40;;;;;;5044266;28;20041;-60
2024/01/22 02:50:18;;;;;;;19.58;12.55;;;0.90;80.40;;;;;;5047608;28;20056;-60
2024/01/22 02:52:44;;;;;;;21.13;12.88;;;0.90;80.50;;;;;;5047546;28;20041;-60
2024/01/22 02:55:10;;;;;;;19.73;12.25;;;0.90;80.50;;;;;;5047963;28;20094;-61
2024/01/22 02:57:35;;;;;;;18.88;12.70;;;1.00;80.60;;;;;;5048537;28;20037;-59
2024/01/22 03:00:01;;;;;;;19.02;12.20;;;1.00;80.60;;;;;;5045361;28;20119;-59
2024/01/22 03:02:27;;;;;;;17.85;11.65;;;1.00;80.60;;;;;;5040960;28;20037;-58
2024/01/22 03:04:52;;;;;;;18.85;12.15;;;1.00;80.60;;;;;;5046908;28;20043;-60
2024/01/22 03:07:18;;;;;;;18.30;11.90;;;1.00;80.60;;;;;;5046777;28;20434;-60
2024/01/22 03:09:43;;;;;;;16.13;10.43;;;1.00;80.60;;;;;;5045993;28;20043;-58
2024/01/22 03:12:09;;;;;;;15.98;10.32;;;1.10;80.60;;;;;;5049299;28;20017;-58
2024/01/22 03:14:35;;;;;;;16.38;9.98;;;1.10;80.60;;;;;;5050494;28;20056;-59
2024/01/22 03:17:00;;;;;;;15.38;10.13;;;1.20;80.50;;;;;;5046655;28;20041;-59
2024/01/22 03:19:26;;;;;;;14.20;9.13;;;1.20;80.40;;;;;;5051981;28;20505;-60
2024/01/22 03:21:51;;;;;;;13.25;8.75;;;1.20;80.40;;;;;;5048312;28;20033;-61
2024/01/22 03:24:17;;;;;;;12.48;8.48;;;1.30;80.20;;;;;;5050392;28;20528;-61
2024/01/22 03:26:42;;;;;;;12.32;7.40;;;1.30;80.20;;;;;;5040038;28;20035;-60
2024/01/22 03:29:08;;;;;;;11.15;7.95;;;1.40;80.10;;;;;;5045322;28;20053;-60
2024/01/22 03:31:37;;;;;;;11.85;7.88;;;1.40;79.80;;;;;;5047208;28;20025;-58
2024/01/22 03:34:03;;;;;;;11.52;7.57;;;1.50;79.70;;;;;;5048920;28;20021;-59
2024/01/22 03:36:29;;;;;;;9.15;6.80;;;1.60;79.50;;;;;;5047711;28;20059;-59
2024/01/22 03:38:54;;;;;;;10.40;6.75;;;1.60;79.20;;;;;;5047904;28;20036;-59
2024/01/22 03:41:20;;;;;;;9.48;6.80;;;1.70;79.00;;;;;;5045976;28;20037;-58
2024/01/22 03:43:46;;;;;;;10.02;6.18;;;1.70;78.70;;;;;;5049140;28;20029;-60
2024/01/22 03:46:12;;;;;;;7.75;5.78;;;1.80;78.50;;;;;;5044976;28;20439;-61
2024/01/22 03:48:38;;;;;;;8.63;5.35;;;1.80;78.30;;;;;;5046523;28;20044;-59
2024/01/22 03:51:04;;;;;;;8.55;5.32;;;1.90;78.30;;;;;;5048573;28;20036;-57
2024/01/22 03:53:30;;;;;;;7.20;4.85;;;1.90;78.10;;;;;;5046461;28;20037;-58
2024/01/22 03:55:55;;;;;;;7.03;4.80;;;2.00;78.00;;;;;;5047880;28;20049;-59
2024/01/22 03:58:21;;;;;;;6.75;4.70;;;2.00;77.60;;;;;;5048661;28;20048;-61
2024/01/22 04:00:47;;;;;;;8.50;5.00;;;2.10;77.40;;;;;;5046945;28;20064;-59
2024/01/22 04:03:12;;;;;;;7.60;5.18;;;2.10;77.10;;;;;;5051664;28;20283;-60
2024/01/22 04:05:38;;;;;;;8.57;5.00;;;2.20;76.90;;;;;;5042805;28;20500;-58
2024/01/22 04:08:05;;;;;;;9.00;5.68;;;2.20;76.60;;;;;;5051771;28;20045;-59
2024/01/22 04:10:30;;;;;;;8.55;5.40;;;2.20;76.30;;;;;;5038438;28;20452;-59
2024/01/22 04:12:56;;;;;;;8.10;5.47;;;2.30;76.30;;;;;;5045190;28;20098;-60
2024/01/22 04:15:22;;;;;;;9.70;5.80;;;2.30;76.10;;;;;;5048685;28;20124;-59
2024/01/22 04:17:47;;;;;;;7.93;4.82;;;2.30;76.10;;;;;;5043991;28;20513;-58
2024/01/22 04:20:13;;;;;;;6.47;4.65;;;2.30;76.00;;;;;;5050423;28;20071;-59
2024/01/22 04:22:39;;;;;;;5.72;4.55;;;2.30;76.00;;;;;;5046887;28;20528;-58
2024/01/22 04:25:05;;;;;;;7.85;4.80;;;2.30;75.90;;;;;;5044209;28;20425;-59
2024/01/22 04:27:30;;;;;;;6.13;4.53;;;2.30;75.70;;;;;;5045806;28;20068;-59
2024/01/22 04:29:56;;;;;;;7.28;4.55;;;2.40;75.70;;;;;;5044408;28;20029;-59
2024/01/22 04:32:22;;;;;;;5.95;3.90;;;2.40;75.50;;;;;;5049331;28;20032;-58
2024/01/22 04:34:48;;;;;;;6.13;4.20;;;2.40;75.40;;;;;;5043642;28;20036;-60
2024/01/22 04:37:14;;;;;;;6.30;4.15;;;2.40;75.30;;;;;;5041126;28;20404;-61
2024/01/22 04:39:40;;;;;;;6.93;4.43;;;2.40;75.20;;;;;;5049105;28;20418;-59
2024/01/22 04:42:06;;;;;;;5.95;4.20;;;2.50;75.20;;;;;;5044581;28;20029;-60
2024/01/22 04:44:32;;;;;;;6.82;4.50;;;2.50;75.20;;;;;;5047765;28;20565;-61
2024/01/22 04:46:58;;;;;;;7.90;4.72;;;2.50;75.20;;;;;;5047069;28;20032;-59
2024/01/22 04:49:24;;;;;;;6.93;4.60;;;2.50;75.00;;;;;;5046526;28;20086;-59
2024/01/22 04:51:49;;;;;;;9.07;4.80;;;2.50;74.80;;;;;;5048043;28;20037;-61
2024/01/22 04:54:15;;;;;;;5.63;3.95;;;2.50;74.80;;;;;;5043893;28;20025;-59
2024/01/22 04:56:42;;;;;;;8.02;4.13;;;2.60;74.90;;;;;;5048174;28;20040;-60
2024/01/22 04:59:08;;;;;;;5.85;3.88;;;2.60;74.70;;;;;;5049176;28;20029;-60
2024/01/22 05:01:34;;;;;;;5.47;3.50;;;2.60;74.80;;;;;;5042958;28;20041;-59
2024/01/22 05:03:59;;;;;;;5.97;4.22;;;2.70;74.90;;;;;;5046893;28;20098;-60
2024/01/22 05:06:25;;;;;;;6.60;4.20;;;2.80;74.70;;;;;;5041148;28;20462;-60
2024/01/22 05:08:50;;;;;;;5.72;4.00;;;2.90;74.70;;;;;;5044099;28;20033;-59
2024/01/22 05:11:16;;;;;;;7.70;4.30;;;2.90;74.50;;;;;;5046729;28;20630;-61
2024/01/22 05:13:50;;;;;;;5.55;4.05;;;3.00;74.30;;;;;;5043498;28;20028;-59
2024/01/22 05:16:16;;;;;;;6.95;4.60;;;3.10;73.80;;;;;;5047036;28;20029;-60
2024/01/22 05:18:43;;;;;;;6.45;4.68;;;3.10;74.10;;;;;;5043450;28;20119;-58
2024/01/22 05:21:08;;;;;;;7.43;4.82;;;3.10;74.10;;;;;;5041415;28;20025;-60
2024/01/22 05:23:34;;;;;;;7.45;5.05;;;3.20;73.90;;;;;;5034830;28;20040;-58
2024/01/22 05:25:59;;;;;;;8.27;5.07;;;3.20;74.00;;;;;;5044570;28;20057;-60
2024/01/22 05:28:25;;;;;;;7.28;5.05;;;3.20;73.80;;;;;;5043133;28;20484;-60
2024/01/22 05:30:50;;;;;;;7.93;5.20;;;3.20;73.60;;;;;;5043064;28;20403;-61
2024/01/22 05:33:16;;;;;;;5.60;4.20;;;3.20;73.60;;;;;;5043197;28;20029;-58
2024/01/22 05:35:42;;;;;;;6.03;4.85;;;3.20;73.60;;;;;;5043536;28;20041;-60
2024/01/22 05:38:07;;;;;;;5.85;4.78;;;3.20;73.60;;;;;;5043001;28;20033;-58
2024/01/22 05:40:33;;;;;;;7.80;4.55;;;3.30;73.60;;;;;;5044949;28;20029;-60
2024/01/22 05:42:58;;;;;;;9.88;4.80;;;3.30;73.60;;;;;;5048240;28;20032;-60
2024/01/22 05:45:25;;;;;;;8.32;4.80;;;3.30;73.60;;;;;;5042383;28;20036;-60
2024/01/22 05:47:51;;;;;;;10.70;6.32;;;3.30;73.60;;;;;;5046103;28;20041;-61
2024/01/22 05:50:16;;;;;;;7.30;5.25;;;3.30;73.60;;;;;;5046855;28;20310;-60
2024/01/22 05:52:42;;;;;;;7.13;5.10;;;3.30;73.60;;;;;;5038604;28;20113;-61
2024/01/22 05:55:08;;;;;;;5.78;4.68;;;3.30;73.60;;;;;;5049356;28;20032;-59
2024/01/22 05:57:33;;;;;;;7.60;4.93;;;3.30;73.60;;;;;;5041610;28;20033;-61
2024/01/22 05:59:59;;;;;;;7.55;4.65;;;3.30;73.60;;;;;;5049921;28;20133;-60
2024/01/22 06:02:25;;;;;;;6.65;4.28;;;3.30;73.40;;;;;;5047857;28;20013;-61
2024/01/22 06:04:51;;;;;;;9.00;4.97;;;3.30;73.40;;;;;;5051334;28;20029;-62
2024/01/22 06:07:17;;;;;;;7.63;4.95;;;3.30;73.40;;;;;;5047847;28;20055;-60
2024/01/22 06:09:43;;;;;;;6.85;4.80;;;3.30;73.30;;;;;;5046053;28;20528;-57
2024/01/22 06:12:08;;;;;;;8.45;5.18;;;3.30;73.40;;;;;;5052041;28;20037;-61
2024/01/22 06:14:34;;;;;;;6.97;4.65;;;3.30;73.30;;;;;;5047329;28;20025;-60
2024/01/22 06:16:59;;;;;;;8.57;4.97;;;3.30;73.20;;;;;;5048917;28;20573;-58
2024/01/22 06:19:25;;;;;;;8.65;5.00;;;3.40;73.30;;;;;;5052138;28;20539;-61
2024/01/22 06:21:51;;;;;;;7.13;5.00;;;3.40;73.30;;;;;;5046727;28;20123;-60
2024/01/22 06:24:16;;;;;;;6.65;4.80;;;3.40;73.30;;;;;;5050535;28;20494;-61
2024/01/22 06:26:42;;;;;;;7.38;5.10;;;3.40;73.30;;;;;;5048310;28;20086;-61
2024/01/22 06:29:13;;;;;;;7.00;4.70;;;3.40;73.10;;;;;;5047794;28;20021;-59
2024/01/22 06:31:39;;;;;;;7.75;5.40;;;3.40;73.10;;;;;;5050286;28;20025;-60
2024/01/22 06:34:04;;;;;;;8.23;5.57;;;3.40;73.10;;;;;;5045973;28;20392;-61
2024/01/22 06:36:31;;;;;;;6.88;5.35;;;3.50;73.10;;;;;;5050763;28;20064;-60
2024/01/22 06:38:57;;;;;;;8.88;6.45;;;3.50;73.10;;;;;;5049905;28;20163;-59
2024/01/22 06:41:23;;;;;;;6.68;4.53;;;3.50;73.10;;;;;;5046811;28;20490;-59
2024/01/22 06:43:49;;;;;;;5.85;4.75;;;3.50;73.10;;;;;;5048777;28;20036;-59
2024/01/22 06:46:14;;;;;;;6.80;4.88;;;3.50;73.00;;;;;;5048062;28;20496;-59
2024/01/22 06:48:40;;;;;;;7.35;4.63;;;3.60;72.90;;;;;;5051323;28;20060;-57
2024/01/22 06:51:08;;;;;;;5.30;4.20;;;3.60;72.90;;;;;;5050883;28;20048;-60
2024/01/22 06:53:34;;;;;;;6.18;4.25;;;3.60;72.90;;;;;;5045772;28;20025;-58
2024/01/22 06:55:59;;;;;;;6.07;4.20;;;3.60;72.90;;;;;;5046717;28;20405;-59
2024/01/22 06:58:25;;;;;;;5.70;3.90;;;3.60;72.70;;;;;;5046462;28;20404;-61
2024/01/22 07:00:51;;;;;;;5.25;4.20;;;3.60;72.60;;;;;;5050438;28;20040;-61
2024/01/22 07:03:20;;;;;;;7.50;4.55;;;3.60;72.60;;;;;;5049266;28;20548;-59
2024/01/22 07:05:46;;;;;;;6.57;4.53;;;3.60;72.60;;;;;;5043518;28;20072;-60
2024/01/22 07:08:11;;;;;;;8.38;4.97;;;3.70;72.60;;;;;;5047118;28;20037;-59
2024/01/22 07:10:38;;;;;;;6.15;4.70;;;3.60;72.60;;;;;;5046341;28;20393;-60
2024/01/22 07:13:03;;;;;;;8.10;4.72;;;3.70;72.60;;;;;;5050398;28;20029;-61
2024/01/22 07:15:29;;;;;;;6.97;5.18;;;3.70;72.60;;;;;;5045006;28;20156;-61
2024/01/22 07:17:54;;;;;;;9.18;5.80;;;3.60;72.40;;;;;;5043947;28;20029;-61
2024/01/22 07:20:20;;;;;;;8.10;5.35;;;3.60;72.40;;;;;;5051058;28;20033;-59
2024/01/22 07:22:46;;;;;;;9.30;5.50;;;3.60;72.40;;;;;;5047651;28;20075;-60
2024/01/22 07:25:11;;;;;;;7.32;5.28;;;3.60;72.60;;;;;;5040702;28;20047;-61
2024/01/22 07:27:42;;;;;;;6.72;4.90;;;3.60;72.40;;;;;;5047577;28;20076;-59
2024/01/22 07:30:11;;;;;;;7.60;5.30;;;3.60;72.30;;;;;;5048115;28;20025;-58
2024/01/22 07:32:37;;;;;;;8.13;5.50;;;3.50;72.40;;;;;;5048529;28;20037;-56
2024/01/22 07:35:10;;;;;;;8.32;5.60;;;3.60;72.60;;;;;;5049729;28;20496;-60
2024/01/22 07:37:44;;;;;;;10.25;5.40;;;3.60;72.70;;;;;;5044578;28;20044;-58
2024/01/22 07:40:11;;;;;;;8.93;5.55;;;3.60;72.80;;;;;;5050609;28;20029;-60
2024/01/22 07:42:38;;;;;;;7.30;5.15;;;3.60;72.90;;;;;;5046051;28;20032;-58
2024/01/22 07:45:05;;;;;;;10.00;6.15;;;3.60;73.00;;;;;;5046953;28;20026;-61
2024/01/22 07:47:31;;;;;;;7.15;5.13;;;3.60;73.10;;;;;;5049929;28;20037;-60
2024/01/22 07:49:58;;;;;;;8.35;5.88;;;3.60;73.10;;;;;;5041475;28;20471;-61
2024/01/22 07:52:24;;;;;;;12.32;6.15;;;3.60;73.10;;;;;;5050294;28;20032;-61
2024/01/22 07:54:49;;;;;;;11.60;6.75;;;3.70;73.20;;;;;;5044816;28;20078;-60
2024/01/22 07:57:15;;;;;;;9.20;6.28;;;3.70;73.30;;;;;;5043405;28;20082;-60
2024/01/22 07:59:41;;;;;;;9.52;6.03;;;3.70;73.10;;;;;;5046193;28;20049;-59
2024/01/22 08:02:07;;;;;;;9.52;5.82;;;3.70;73.10;;;;;;5041795;28;20093;-60
2024/01/22 08:04:33;;;;;;;9.43;5.70;;;3.70;73.10;;;;;;5048551;28;20041;-61
2024/01/22 08:07:03;;;;;;;12.02;6.90;;;3.70;73.10;;;;;;5048867;28;20116;-61
2024/01/22 08:09:30;;;;;;;11.05;7.00;;;3.70;73.20;;;;;;5048682;28;20041;-59
2024/01/22 08:11:56;;;;;;;7.80;5.53;;;3.80;73.20;;;;;;5047879;28;20060;-59
2024/01/22 08:14:22;;;;;;;8.82;5.80;;;3.80;73.20;;;;;;5044990;28;20504;-59
2024/01/22 08:16:49;;;;;;;9.38;6.03;;;3.80;73.30;;;;;;5046746;28;20045;-60
2024/01/22 08:19:15;;;;;;;12.13;5.35;;;3.80;73.20;;;;;;5050371;28;20171;-60
2024/01/22 08:21:40;;;;;;;7.97;4.97;;;3.80;73.20;;;;;;5044548;28;20481;-56
2024/01/22 08:24:06;;;;;;;9.75;4.70;;;3.90;73.10;;;;;;5048960;28;20094;-57
2024/01/22 08:26:32;;;;;;;6.97;4.75;;;3.90;73.10;;;;;;5044625;28;20033;-60
2024/01/22 08:28:57;;;;;;;7.50;4.97;;;4.00;73.10;;;;;;5047079;28;20038;-61
2024/01/22 08:31:23;;;;;;;6.85;5.13;;;4.00;73.30;;;;;;5049969;28;20406;-57
2024/01/22 08:33:49;;;;;;;6.85;5.10;;;4.00;73.30;;;;;;5041847;28;20118;-59
2024/01/22 08:36:15;;;;;;;6.80;4.97;;;4.10;73.10;;;;;;5049828;28;20036;-59
2024/01/22 08:38:41;;;;;;;7.72;5.18;;;4.10;73.00;;;;;;5048117;28;20025;-60
2024/01/22 08:41:08;;;;;;;7.72;4.93;;;4.10;73.10;;;;;;5045138;28;20037;-60
2024/01/22 08:43:34;;;;;;;5.70;4.78;;;4.20;73.10;;;;;;5048291;28;20033;-58
2024/01/22 08:46:00;;;;;;;7.03;4.55;;;4.20;73.00;;;;;;5043117;28;20064;-60
2024/01/22 08:48:26;;;;;;;6.03;4.65;;;4.20;73.00;;;;;;5049546;28;20049;-59
2024/01/22 08:50:51;;;;;;;6.85;4.65;;;4.20;73.10;;;;;;5046226;28;20060;-61
2024/01/22 08:53:17;;;;;;;7.60;4.55;;;4.30;73.30;;;;;;5044207;28;20029;-59
2024/01/22 08:55:43;;;;;;;7.15;4.45;;;4.30;73.20;;;;;;5046742;28;20041;-60
2024/01/22 08:58:09;;;;;;;9.55;5.75;;;4.30;73.20;;;;;;5043847;28;20025;-60
2024/01/22 09:00:36;;;;;;;9.15;5.13;;;4.30;73.10;;;;;;5047735;28;20036;-58
2024/01/22 09:03:01;;;;;;;6.93;4.63;;;4.40;73.20;;;;;;5043997;28;20381;-59
2024/01/22 09:05:27;;;;;;;8.00;4.78;;;4.40;73.30;;;;;;5038666;28;20052;-61
2024/01/22 09:07:52;;;;;;;5.88;4.50;;;4.40;73.30;;;;;;5046366;28;20037;-59
2024/01/22 09:10:18;;;;;;;9.63;6.07;;;4.40;73.20;;;;;;5044368;28;20037;-61
2024/01/22 09:12:45;;;;;;;8.93;5.30;;;4.50;73.10;;;;;;5041372;28;20117;-60
2024/01/22 09:15:11;;;;;;;7.30;4.93;;;4.50;73.10;;;;;;5048485;28;20037;-61
2024/01/22 09:17:37;;;;;;;6.35;4.85;;;4.50;73.00;;;;;;5042504;28;20048;-58
2024/01/22 09:20:04;;;;;;;6.95;4.85;;;4.60;72.80;;;;;;5048285;28;20061;-60
2024/01/22 09:22:29;;;;;;;6.30;4.72;;;4.60;72.60;;;;;;5042948;28;20037;-60
2024/01/22 09:24:55;;;;;;;7.15;4.80;;;4.60;72.40;;;;;;5050408;28;20433;-60
2024/01/22 09:27:21;;;;;;;6.93;4.40;;;4.60;72.20;;;;;;5048623;28;20032;-60
2024/01/22 09:29:46;;;;;;;7.50;4.35;;;4.60;72.40;;;;;;5043261;28;20344;-61
2024/01/22 09:32:13;;;;;;;6.53;4.15;;;4.60;72.40;;;;;;5049570;28;20408;-60
2024/01/22 09:34:39;;;;;;;5.95;4.45;;;4.60;72.20;;;;;;5044265;28;20053;-60
2024/01/22 09:37:05;;;;;;;5.40;4.30;;;4.70;72.40;;;;;;5046777;28;20072;-62
2024/01/22 09:39:31;;;;;;;5.93;3.90;;;4.70;72.50;;;;;;5050534;28;20037;-60
2024/01/22 09:42:00;;;;;;;5.18;4.15;;;4.70;72.60;;;;;;5042287;28;20029;-61
2024/01/22 09:44:26;;;;;;;6.85;4.30;;;4.70;72.50;;;;;;5048417;28;20029;-61
2024/01/22 09:46:53;;;;;;;8.98;4.30;;;4.70;72.60;;;;;;5049184;28;20116;-61
2024/01/22 09:49:19;;;;;;;5.43;3.78;;;4.80;72.50;;;;;;5043599;28;20113;-61
2024/01/22 09:51:45;;;;;;;8.88;4.57;;;4.80;72.40;;;;;;5046072;28;20083;-62
2024/01/22 09:54:12;;;;;;;7.25;4.30;;;4.80;72.20;;;;;;5042875;28;20048;-61
2024/01/22 09:56:39;;;;;;;5.50;4.00;;;4.90;72.20;;;;;;5041898;28;20045;-62
2024/01/22 09:59:14;;;;;;;6.15;4.43;;;4.90;72.20;;;;;;5047836;28;20401;-62
2024/01/22 10:01:40;;;;;;;5.10;4.20;;;4.90;72.00;;;;;;5041601;28;20021;-62
2024/01/22 10:04:07;;;;;;;4.78;4.00;;;5.00;72.40;;;;;;5044375;28;20075;-62
2024/01/22 10:06:36;;;;;;;5.63;4.05;;;5.00;72.30;;;;;;5043965;28;20514;-61
2024/01/22 10:09:02;;;;;;;5.22;3.90;;;5.10;72.30;;;;;;5046109;28;20090;-63
2024/01/22 10:11:30;;;;;;;6.93;4.47;;;5.10;72.20;;;;;;5047663;28;20037;-62
2024/01/22 10:13:56;;;;;;;5.50;4.63;;;5.20;72.00;;;;;;5040888;28;20059;-62
2024/01/22 10:16:25;;;;;;;5.93;4.07;;;5.20;71.90;;;;;;5043409;28;20112;-62
2024/01/22 10:19:04;;;;;;;6.38;4.32;;;5.30;71.90;;;;;;5045241;28;20415;-62
2024/01/22 10:21:29;;;;;;;6.80;4.15;;;5.30;71.60;;;;;;5045108;28;20404;-62
2024/01/22 10:24:02;;;;;;;5.75;4.28;;;5.30;71.90;;;;;;5042945;28;20032;-63
2024/01/22 10:26:30;;;;;;;6.78;4.38;;;5.40;71.70;;;;;;5042892;28;20119;-63
2024/01/22 10:29:17;;;;;;;6.50;4.00;;;5.40;71.80;;;;;;5045891;28;20041;-62
2024/01/22 10:31:54;;;;;;;6.65;4.05;;;5.50;71.40;;;;;;5044083;28;20044;-62
2024/01/22 10:34:20;;;;;;;6.18;3.95;;;5.60;71.60;;;;;;5038159;28;20569;-63
2024/01/22 10:36:45;;;;;;;7.72;4.50;;;5.60;71.90;;;;;;5048318;28;20041;-63
2024/01/22 10:39:11;;;;;;;5.88;4.60;;;5.60;71.80;;;;;;5047874;28;20066;-63
2024/01/22 10:41:40;;;;;;;7.05;4.63;;;5.70;71.80;;;;;;5043510;28;20097;-63
2024/01/22 10:44:06;;;;;;;7.72;4.70;;;5.70;71.80;;;;;;5046589;28;20022;-63
2024/01/22 10:46:34;;;;;;;7.07;4.57;;;5.70;71.90;;;;;;5046556;28;20075;-63
2024/01/22 10:49:00;;;;;;;6.97;4.25;;;5.80;71.90;;;;;;5049311;28;20029;-63
2024/01/22 10:51:27;;;;;;;7.72;4.72;;;5.80;71.80;;;;;;5051811;28;20548;-62
2024/01/22 10:53:53;;;;;;;6.75;4.70;;;5.90;71.90;;;;;;5040367;28;20032;-63
2024/01/22 10:56:22;;;;;;;6.72;4.63;;;5.90;71.90;;;;;;5051576;28;20033;-63
2024/01/22 10:58:49;;;;;;;9.57;4.18;;;6.00;71.90;;;;;;5046076;28;20037;-63
2024/01/22 11:01:16;;;;;;;8.73;4.90;;;6.00;71.90;;;;;;5049243;28;20025;-63
2024/01/22 11:03:47;;;;;;;5.10;3.38;;;6.00;72.00;;;;;;5048958;28;20440;-63
2024/01/22 11:06:18;;;;;;;4.80;3.53;;;6.10;72.00;;;;;;5045686;28;20404;-63
2024/01/22 11:08:54;;;;;;;4.88;3.40;;;6.20;72.10;;;;;;5051953;28;20029;-63
2024/01/22 11:11:21;;;;;;;4.70;3.28;;;6.30;72.20;;;;;;5047602;28;20145;-63
2024/01/22 11:13:52;;;;;;;4.90;3.10;;;6.40;72.20;;;;;;5044874;28;20071;-63
2024/01/22 11:16:22;;;;;;;5.25;3.00;;;6.50;72.20;;;;;;5051197;28;20511;-63
2024/01/22 11:19:02;;;;;;;7.30;3.53;;;6.60;72.20;;;;;;5047419;28;20029;-63
2024/01/22 11:21:37;;;;;;;9.25;5.75;;;6.70;72.00;;;;;;5045859;28;20026;-62
2024/01/22 11:24:22;;;;;;;7.75;5.60;;;6.80;72.20;;;;;;5049661;28;20040;-63
2024/01/22 11:26:51;;;;;;;5.70;4.30;;;6.90;72.00;;;;;;5048331;28;21435;-63
2024/01/22 11:29:22;;;;;;;5.68;4.03;;;6.90;72.10;;;;;;5045744;28;20017;-63
2024/01/22 11:31:48;;;;;;;6.32;3.42;;;7.00;72.00;;;;;;5049650;28;20497;-63
2024/01/22 11:34:14;;;;;;;2.88;1.98;;;7.00;72.10;;;;;;5045387;28;20029;-62
2024/01/22 11:36:55;;;;;;;3.25;1.70;;;7.10;72.10;;;;;;5048405;28;20061;-64
2024/01/22 11:39:34;;;;;;;1.35;1.23;;;7.20;71.80;;;;;;5047291;28;20479;-63
2024/01/22 11:42:16;;;;;;;2.15;1.50;;;7.20;71.60;;;;;;5044142;28;20114;-63
2024/01/22 11:44:42;;;;;;;2.30;1.42;;;7.30;71.60;;;;;;5044025;28;20272;-64
2024/01/22 11:47:09;;;;;;;4.18;1.35;;;7.40;72.00;;;;;;5050099;28;20120;-64
2024/01/22 11:49:35;;;;;;;2.20;1.60;;;7.50;71.80;;;;;;5044609;28;20672;-64
2024/01/22 11:52:14;;;;;;;2.20;1.15;;;7.60;71.60;;;;;;5046861;28;20087;-64
2024/01/22 11:54:52;;;;;;;2.08;1.42;;;7.60;70.70;;;;;;5046047;28;20029;-64
2024/01/22 11:57:18;;;;;;;1.92;1.40;;;7.70;70.70;;;;;;5042933;28;20035;-64
2024/01/22 12:00:06;;;;;;;1.85;1.25;;;7.80;71.20;;;;;;5047354;28;20404;-64
2024/01/22 12:02:34;;;;;;;2.13;1.30;;;7.90;70.70;;;;;;5043518;28;20103;-64
2024/01/22 12:05:01;;;;;;;1.48;1.20;;;8.00;71.00;;;;;;5048402;28;20061;-65
2024/01/22 12:07:31;;;;;;;3.42;1.20;;;8.00;71.10;;;;;;5039435;28;20029;-64
2024/01/22 12:09:57;;;;;;;5.25;1.38;;;8.00;70.70;;;;;;5045361;28;20526;-64
2024/01/22 12:12:22;;;;;;;2.90;1.25;;;8.10;70.60;;;;;;5047649;28;20124;-63
2024/01/22 12:14:58;;;;;;;2.00;1.33;;;8.10;70.50;;;;;;5046620;28;20103;-64
2024/01/22 12:17:24;;;;;;;1.95;1.30;;;8.10;69.80;;;;;;5045505;28;20037;-64
2024/01/22 12:19:54;;;;;;;3.38;1.30;;;8.20;70.10;;;;;;5050193;28;20515;-64
2024/01/22 12:22:22;;;;;;;3.03;1.50;;;8.20;70.20;;;;;;5045674;28;20372;-64
2024/01/22 12:25:08;;;;;;;2.33;1.50;;;8.20;70.40;;;;;;5048798;28;20040;-63
2024/01/22 12:27:34;;;;;;;2.20;1.50;;;8.30;70.00;;;;;;5049878;28;20029;-63
2024/01/22 12:30:01;;;;;;;1.40;1.30;;;8.30;70.30;;;;;;5045836;28;20488;-63
2024/01/22 12:32:27;;;;;;;1.88;1.40;;;8.30;70.30;;;;;;5049609;28;20036;-63
2024/01/22 12:34:57;;;;;;;1.90;1.30;;;8.30;69.80;;;;;;5046337;28;20028;-63
2024/01/22 12:37:23;;;;;;;2.33;1.42;;;8.30;70.10;;;;;;5044416;28;20677;-64
2024/01/22 12:39:49;;;;;;;3.03;1.50;;;8.30;70.00;;;;;;5048507;28;20315;-64
2024/01/22 12:42:21;;;;;;;2.13;1.60;;;8.40;70.10;;;;;;5047066;28;20033;-63
2024/01/22 12:45:05;;;;;;;2.47;1.27;;;8.40;70.00;;;;;;5044097;28;20033;-63
2024/01/22 12:47:33;;;;;;;2.28;1.40;;;8.40;69.50;;;;;;5046025;28;20047;-63